sensor_id;sensor_type;location;lat;lon;timestamp;temperature;humidity
22706;DHT22;11520;51.198;4.468;2023-04-15T14:12:01;17.90;83.60
22706;DHT22;11520;51.198;4.468;2023-04-15T14:14:26;17.20;85.30
22706;DHT22;11520;51.198;4.468;2023-04-15T14:16:53;17.10;81.70
22706;DHT22;11520;51.198;4.468;2023-04-15T14:19:18;16.80;79.10
22706;DHT22;11520;51.198;4.468;2023-04-15T14:21:44;16.90;80.10
22706;DHT22;11520;51.198;4.468;2023-04-15T14:24:10;17.00;79.10
22706;DHT22;11520;51.198;4.468;2023-04-15T14:26:35;17.10;78.60
22706;DHT22;11520;51.198;4.468;2023-04-15T14:29:01;17.20;78.70
22706;DHT22;11520;51.198;4.468;2023-04-15T14:31:26;17.30;82.90
22706;DHT22;11520;51.198;4.468;2023-04-15T14:33:52;17.40;83.60
22706;DHT22;11520;51.198;4.468;2023-04-15T14:36:17;17.50;85.00
22706;DHT22;11520;51.198;4.468;2023-04-15T14:38:43;17.50;83.60
22706;DHT22;11520;51.198;4.468;2023-04-15T14:41:08;17.40;85.50
22706;DHT22;11520;51.198;4.468;2023-04-15T14:43:34;17.20;85.10
22706;DHT22;11520;51.198;4.468;2023-04-15T14:46:00;17.10;87.40
22706;DHT22;11520;51.198;4.468;2023-04-15T14:48:26;17.10;86.60
22706;DHT22;11520;51.198;4.468;2023-04-15T14:50:52;17.10;85.40
22706;DHT22;11520;51.198;4.468;2023-04-15T14:53:18;17.20;84.90
22706;DHT22;11520;51.198;4.468;2023-04-15T14:55:43;17.20;79.60
22706;DHT22;11520;51.198;4.468;2023-04-15T14:58:10;16.90;75.90
22706;DHT22;11520;51.198;4.468;2023-04-15T15:00:37;16.90;77.00
22706;DHT22;11520;51.198;4.468;2023-04-15T15:03:04;16.90;76.40
22706;DHT22;11520;51.198;4.468;2023-04-15T15:05:46;16.80;77.20
22706;DHT22;11520;51.198;4.468;2023-04-15T15:08:12;16.90;76.20
22706;DHT22;11520;51.198;4.468;2023-04-15T15:10:38;16.80;77.10
22706;DHT22;11520;51.198;4.468;2023-04-15T15:13:08;16.60;79.20
22706;DHT22;11520;51.198;4.468;2023-04-15T15:15:35;16.50;80.70
22706;DHT22;11520;51.198;4.468;2023-04-15T15:18:01;16.40;80.90
22706;DHT22;11520;51.198;4.468;2023-04-15T15:20:27;16.50;80.60
22706;DHT22;11520;51.198;4.468;2023-04-15T15:22:53;16.40;79.80
22706;DHT22;11520;51.198;4.468;2023-04-15T15:25:19;16.40;79.90
22706;DHT22;11520;51.198;4.468;2023-04-15T15:27:44;16.50;80.60
22706;DHT22;11520;51.198;4.468;2023-04-15T15:30:10;16.60;81.00
22706;DHT22;11520;51.198;4.468;2023-04-15T15:32:40;16.50;78.00
22706;DHT22;11520;51.198;4.468;2023-04-15T15:35:06;16.30;79.60
22706;DHT22;11520;51.198;4.468;2023-04-15T15:37:32;16.30;80.50
22706;DHT22;11520;51.198;4.468;2023-04-15T15:39:58;16.20;81.70
22706;DHT22;11520;51.198;4.468;2023-04-15T15:42:25;16.40;82.90
22706;DHT22;11520;51.198;4.468;2023-04-15T15:44:50;16.50;84.00
22706;DHT22;11520;51.198;4.468;2023-04-15T15:47:17;16.50;84.70
22706;DHT22;11520;51.198;4.468;2023-04-15T15:49:43;16.30;83.60
22706;DHT22;11520;51.198;4.468;2023-04-15T15:52:10;16.00;85.00
22706;DHT22;11520;51.198;4.468;2023-04-15T15:54:35;15.90;84.10
22706;DHT22;11520;51.198;4.468;2023-04-15T15:57:02;15.90;85.40
22706;DHT22;11520;51.198;4.468;2023-04-15T15:59:28;15.90;86.50
22706;DHT22;11520;51.198;4.468;2023-04-15T16:01:53;15.80;85.90
22706;DHT22;11520;51.198;4.468;2023-04-15T16:04:19;16.00;85.60
22706;DHT22;11520;51.198;4.468;2023-04-15T16:06:45;16.00;86.80
22706;DHT22;11520;51.198;4.468;2023-04-15T16:09:11;16.10;87.20
22706;DHT22;11520;51.198;4.468;2023-04-15T16:11:37;15.90;87.60
22706;DHT22;11520;51.198;4.468;2023-04-15T16:14:03;15.80;87.50
22706;DHT22;11520;51.198;4.468;2023-04-15T16:16:28;15.70;88.90
22706;DHT22;11520;51.198;4.468;2023-04-15T16:18:55;15.70;88.20
22706;DHT22;11520;51.198;4.468;2023-04-15T16:21:21;15.60;86.90
22706;DHT22;11520;51.198;4.468;2023-04-15T16:23:49;15.40;87.90
22706;DHT22;11520;51.198;4.468;2023-04-15T16:26:15;15.40;87.40
22706;DHT22;11520;51.198;4.468;2023-04-15T16:28:40;15.40;88.00
22706;DHT22;11520;51.198;4.468;2023-04-15T16:31:06;15.30;89.20
22706;DHT22;11520;51.198;4.468;2023-04-15T16:33:31;15.30;90.40
22706;DHT22;11520;51.198;4.468;2023-04-15T16:35:57;15.30;91.20
22706;DHT22;11520;51.198;4.468;2023-04-15T16:38:22;15.10;92.40
22706;DHT22;11520;51.198;4.468;2023-04-15T16:40:48;15.10;92.70
22706;DHT22;11520;51.198;4.468;2023-04-15T16:43:14;15.00;93.10
22706;DHT22;11520;51.198;4.468;2023-04-15T16:45:39;14.90;93.60
22706;DHT22;11520;51.198;4.468;2023-04-15T16:48:05;14.80;94.10
22706;DHT22;11520;51.198;4.468;2023-04-15T16:50:31;14.70;94.90
22706;DHT22;11520;51.198;4.468;2023-04-15T16:52:56;14.70;95.30
22706;DHT22;11520;51.198;4.468;2023-04-15T16:55:22;14.80;95.80
22706;DHT22;11520;51.198;4.468;2023-04-15T16:57:48;14.90;95.90
22706;DHT22;11520;51.198;4.468;2023-04-15T17:00:14;14.80;96.70
22706;DHT22;11520;51.198;4.468;2023-04-15T17:02:40;14.80;97.00
22706;DHT22;11520;51.198;4.468;2023-04-15T17:05:06;14.80;97.10
22706;DHT22;11520;51.198;4.468;2023-04-15T17:07:32;14.70;97.90
22706;DHT22;11520;51.198;4.468;2023-04-15T17:09:57;14.70;98.50
22706;DHT22;11520;51.198;4.468;2023-04-15T17:12:23;14.60;99.60
22706;DHT22;11520;51.198;4.468;2023-04-15T17:14:49;14.70;99.90
22706;DHT22;11520;51.198;4.468;2023-04-15T17:17:14;14.80;99.90
22706;DHT22;11520;51.198;4.468;2023-04-15T17:19:41;14.80;99.90
22706;DHT22;11520;51.198;4.468;2023-04-15T17:22:06;14.80;99.90
22706;DHT22;11520;51.198;4.468;2023-04-15T17:24:32;14.70;99.90
22706;DHT22;11520;51.198;4.468;2023-04-15T17:26:58;14.70;99.90
22706;DHT22;11520;51.198;4.468;2023-04-15T17:29:23;14.70;99.90
22706;DHT22;11520;51.198;4.468;2023-04-15T17:31:49;14.80;99.90
22706;DHT22;11520;51.198;4.468;2023-04-15T17:34:15;14.60;99.90
22706;DHT22;11520;51.198;4.468;2023-04-15T17:36:40;14.50;99.90
22706;DHT22;11520;51.198;4.468;2023-04-15T17:39:06;14.40;99.90
22706;DHT22;11520;51.198;4.468;2023-04-15T17:41:32;14.10;99.90
22706;DHT22;11520;51.198;4.468;2023-04-15T17:43:57;14.00;99.90
22706;DHT22;11520;51.198;4.468;2023-04-15T17:46:23;13.90;99.90
22706;DHT22;11520;51.198;4.468;2023-04-15T17:48:50;13.80;99.90
22706;DHT22;11520;51.198;4.468;2023-04-15T17:51:19;13.80;99.90
22706;DHT22;11520;51.198;4.468;2023-04-15T17:53:44;13.80;99.90
22706;DHT22;11520;51.198;4.468;2023-04-15T17:56:10;13.60;99.90
22706;DHT22;11520;51.198;4.468;2023-04-15T17:58:36;13.50;99.90
22706;DHT22;11520;51.198;4.468;2023-04-15T18:01:03;13.40;99.90
22706;DHT22;11520;51.198;4.468;2023-04-15T18:03:29;13.30;99.90
22706;DHT22;11520;51.198;4.468;2023-04-15T18:05:55;13.20;99.90
22706;DHT22;11520;51.198;4.468;2023-04-15T18:08:20;13.10;99.90
22706;DHT22;11520;51.198;4.468;2023-04-15T18:10:47;12.90;99.90
22706;DHT22;11520;51.198;4.468;2023-04-15T18:13:13;12.80;99.90
22706;DHT22;11520;51.198;4.468;2023-04-15T18:15:38;12.80;99.90
22706;DHT22;11520;51.198;4.468;2023-04-15T18:18:04;12.70;99.90
22706;DHT22;11520;51.198;4.468;2023-04-15T18:20:30;12.60;99.90
22706;DHT22;11520;51.198;4.468;2023-04-15T18:22:57;12.50;99.90
22706;DHT22;11520;51.198;4.468;2023-04-15T18:25:24;12.40;99.90
22706;DHT22;11520;51.198;4.468;2023-04-15T18:27:50;12.40;99.90
22706;DHT22;11520;51.198;4.468;2023-04-15T18:30:16;12.30;99.90
22706;DHT22;11520;51.198;4.468;2023-04-15T18:32:42;12.20;99.90
22706;DHT22;11520;51.198;4.468;2023-04-15T18:35:08;12.10;99.90
22706;DHT22;11520;51.198;4.468;2023-04-15T18:37:34;12.10;99.90
22706;DHT22;11520;51.198;4.468;2023-04-15T18:39:59;12.00;99.90
22706;DHT22;11520;51.198;4.468;2023-04-15T18:42:25;12.00;99.90
22706;DHT22;11520;51.198;4.468;2023-04-15T18:44:51;11.90;99.90
22706;DHT22;11520;51.198;4.468;2023-04-15T18:47:17;11.80;99.90
22706;DHT22;11520;51.198;4.468;2023-04-15T18:49:43;11.70;99.90
22706;DHT22;11520;51.198;4.468;2023-04-15T18:52:09;11.60;99.90
22706;DHT22;11520;51.198;4.468;2023-04-15T18:54:35;11.50;99.90
22706;DHT22;11520;51.198;4.468;2023-04-15T18:57:01;11.50;99.90
22706;DHT22;11520;51.198;4.468;2023-04-15T18:59:31;11.40;99.90
22706;DHT22;11520;51.198;4.468;2023-04-15T19:01:59;11.30;99.90
22706;DHT22;11520;51.198;4.468;2023-04-15T19:04:26;11.20;99.90
22706;DHT22;11520;51.198;4.468;2023-04-15T19:06:54;11.10;99.90
22706;DHT22;11520;51.198;4.468;2023-04-15T19:09:20;11.00;99.90
22706;DHT22;11520;51.198;4.468;2023-04-15T19:11:45;10.90;99.90
22706;DHT22;11520;51.198;4.468;2023-04-15T19:14:11;10.80;99.90
22706;DHT22;11520;51.198;4.468;2023-04-15T19:16:37;10.70;99.90
22706;DHT22;11520;51.198;4.468;2023-04-15T19:19:03;10.70;99.90
22706;DHT22;11520;51.198;4.468;2023-04-15T19:21:28;10.50;99.90
